createdAt,value
2022-09-07T00:00:51.434Z,96794.00
2022-09-07T00:03:19.190Z,96784.00
2022-09-07T00:05:51.777Z,96790.00
2022-09-07T00:08:23.520Z,96787.00
2022-09-07T00:11:02.066Z,96781.00
2022-09-07T00:13:32.753Z,96776.00
2022-09-07T00:15:59.561Z,96775.00
2022-09-07T00:18:26.473Z,96773.00
2022-09-07T00:21:07.597Z,96765.00
2022-09-07T00:23:37.266Z,96779.00
2022-09-07T00:26:09.600Z,96768.00
2022-09-07T00:28:37.858Z,96767.00
2022-09-07T00:31:10.107Z,96760.00
2022-09-07T00:33:37.121Z,96763.00
2022-09-07T00:36:04.383Z,96764.00
2022-09-07T00:38:31.329Z,96761.00
2022-09-07T00:40:58.296Z,96768.00
2022-09-07T00:43:48.741Z,96770.00
2022-09-07T00:46:24.298Z,96770.00
2022-09-07T00:49:08.086Z,96766.00
2022-09-07T00:51:52.946Z,96768.00
2022-09-07T00:54:24.850Z,96764.00
2022-09-07T00:56:53.617Z,96763.00
2022-09-07T00:59:25.398Z,96762.00
2022-09-07T01:01:52.744Z,96769.00
2022-09-07T01:04:22.082Z,96768.00
2022-09-07T01:06:49.548Z,96769.00
2022-09-07T01:09:20.747Z,96765.00
2022-09-07T01:11:51.138Z,96775.00
2022-09-07T01:14:26.383Z,96778.00
2022-09-07T01:17:21.567Z,96781.00
2022-09-07T01:20:49.472Z,96785.00
2022-09-07T01:23:51.478Z,96784.00
2022-09-07T01:27:02.714Z,96792.00
2022-09-07T01:29:55.143Z,96786.00
2022-09-07T01:32:54.491Z,96782.00
2022-09-07T01:35:47.773Z,96794.00
2022-09-07T01:38:39.452Z,96796.00
2022-09-07T01:41:27.429Z,96796.00
2022-09-07T01:44:20.950Z,96801.00
2022-09-07T01:47:09.261Z,96806.00
2022-09-07T01:50:21.559Z,96806.00
2022-09-07T01:53:11.346Z,96813.00
2022-09-07T01:55:50.592Z,96814.00
2022-09-07T01:58:33.790Z,96807.00
2022-09-07T02:01:11.037Z,96801.00
2022-09-07T02:03:46.775Z,96803.00
2022-09-07T02:07:03.148Z,96802.00
2022-09-07T02:09:41.990Z,96802.00
2022-09-07T02:12:22.817Z,96796.00
2022-09-07T02:14:57.699Z,96794.00
2022-09-07T02:17:34.657Z,96795.00
2022-09-07T02:20:11.738Z,96805.00
2022-09-07T02:22:44.444Z,96804.00
2022-09-07T02:25:17.501Z,96800.00
2022-09-07T02:27:48.868Z,96801.00
2022-09-07T02:30:15.956Z,96795.00
2022-09-07T02:32:42.794Z,96794.00
2022-09-07T02:35:09.825Z,96805.00
2022-09-07T02:37:38.466Z,96799.00
2022-09-07T02:40:06.636Z,96802.00
2022-09-07T02:42:34.952Z,96807.00
2022-09-07T02:45:05.511Z,96803.00
2022-09-07T02:48:06.171Z,96805.00
2022-09-07T02:50:50.063Z,96811.00
2022-09-07T02:53:59.110Z,96810.00
2022-09-07T02:56:55.154Z,96812.00
2022-09-07T02:59:24.599Z,96801.00
2022-09-07T03:02:05.072Z,96818.00
2022-09-07T03:04:48.156Z,96808.00
2022-09-07T03:07:23.488Z,96806.00
2022-09-07T03:09:54.872Z,96814.00
2022-09-07T03:12:21.852Z,96819.00
2022-09-07T03:14:48.716Z,96812.00
2022-09-07T03:17:15.941Z,96813.00
2022-09-07T03:19:42.724Z,96813.00
2022-09-07T03:22:09.527Z,96802.00
2022-09-07T03:24:36.993Z,96809.00
2022-09-07T03:27:03.891Z,96810.00
2022-09-07T03:29:49.946Z,96817.00
2022-09-07T03:32:17.483Z,96813.00
2022-09-07T03:34:45.125Z,96818.00
2022-09-07T03:37:12.630Z,96817.00
2022-09-07T03:39:40.481Z,96807.00
2022-09-07T03:42:07.764Z,96811.00
2022-09-07T03:44:39.978Z,96809.00
2022-09-07T03:47:10.688Z,96796.00
2022-09-07T03:49:38.343Z,96795.00
2022-09-07T03:52:05.266Z,96806.00
2022-09-07T03:54:39.352Z,96813.00
2022-09-07T03:57:47.148Z,96809.00
2022-09-07T04:00:14.520Z,96818.00
2022-09-07T04:02:41.386Z,96816.00
2022-09-07T04:05:08.785Z,96826.00
2022-09-07T04:07:35.545Z,96819.00
2022-09-07T04:10:02.735Z,96817.00
2022-09-07T04:12:29.507Z,96832.00
2022-09-07T04:14:56.460Z,96840.00
2022-09-07T04:17:23.225Z,96836.00
2022-09-07T04:19:50.048Z,96846.00
2022-09-07T04:22:16.886Z,96844.00
2022-09-07T04:24:43.653Z,96843.00
2022-09-07T04:27:10.402Z,96851.00
2022-09-07T04:29:37.655Z,96848.00
2022-09-07T04:32:04.496Z,96851.00
2022-09-07T04:34:31.263Z,96849.00
2022-09-07T04:36:58.056Z,96845.00
2022-09-07T04:39:24.894Z,96839.00
2022-09-07T04:41:51.672Z,96837.00
2022-09-07T04:44:18.454Z,96834.00
2022-09-07T04:46:45.364Z,96834.00
2022-09-07T04:49:12.359Z,96837.00
2022-09-07T04:51:42.438Z,96832.00
2022-09-07T04:54:10.875Z,96838.00
2022-09-07T04:56:37.699Z,96843.00
2022-09-07T04:59:04.815Z,96847.00
2022-09-07T05:01:31.754Z,96842.00
2022-09-07T05:04:01.462Z,96841.00
2022-09-07T05:06:28.713Z,96848.00
2022-09-07T05:08:55.654Z,96846.00
2022-09-07T05:11:28.650Z,96848.00
2022-09-07T05:14:01.903Z,96843.00
2022-09-07T05:16:30.383Z,96853.00
2022-09-07T05:19:01.782Z,96853.00
2022-09-07T05:21:34.443Z,96846.00
2022-09-07T05:24:02.061Z,96843.00
2022-09-07T05:26:32.946Z,96855.00
2022-09-07T05:31:51.467Z,96866.00
2022-09-07T05:34:33.792Z,96858.00
2022-09-07T05:37:01.155Z,96870.00
2022-09-07T05:39:29.917Z,96876.00
2022-09-07T05:41:56.913Z,96871.00
2022-09-07T05:47:11.117Z,96857.00
2022-09-07T05:49:38.116Z,96849.00
2022-09-07T05:52:04.933Z,96848.00
2022-09-07T05:54:31.722Z,96851.00
2022-09-07T05:56:58.523Z,96843.00
2022-09-07T05:59:25.347Z,96846.00
2022-09-07T06:01:52.170Z,96842.00
2022-09-07T06:04:19.260Z,96841.00
2022-09-07T06:06:59.274Z,96847.00
2022-09-07T06:09:32.942Z,96851.00
2022-09-07T06:11:59.736Z,96855.00
2022-09-07T06:14:26.503Z,96857.00
2022-09-07T06:16:53.662Z,96860.00
2022-09-07T06:19:20.478Z,96870.00
2022-09-07T06:21:47.239Z,96873.00
2022-09-07T06:24:14.080Z,96873.00
2022-09-07T06:26:40.855Z,96878.00
2022-09-07T06:29:09.162Z,96878.00
2022-09-07T06:34:23.070Z,96878.00
2022-09-07T06:36:49.852Z,96882.00
2022-09-07T06:39:16.644Z,96889.00
2022-09-07T06:41:58.869Z,96899.00
2022-09-07T06:44:25.829Z,96893.00
2022-09-07T06:49:26.756Z,96892.00
2022-09-07T06:51:53.525Z,96886.00
2022-09-07T06:57:09.231Z,96900.00
2022-09-07T06:59:37.723Z,96900.00
2022-09-07T07:02:06.306Z,96908.00
2022-09-07T07:04:36.505Z,96904.00
2022-09-07T07:07:11.522Z,96908.00
2022-09-07T07:09:38.920Z,96908.00
2022-09-07T07:12:06.190Z,96904.00
2022-09-07T07:14:35.544Z,96910.00
2022-09-07T07:17:03.462Z,96905.00
2022-09-07T07:19:30.395Z,96912.00
2022-09-07T07:24:43.986Z,96907.00
2022-09-07T07:27:10.741Z,96898.00
2022-09-07T07:29:37.510Z,96890.00
2022-09-07T07:32:04.340Z,96897.00
2022-09-07T07:34:31.214Z,96898.00
2022-09-07T07:36:57.982Z,96898.00
2022-09-07T07:42:12.305Z,96906.00
2022-09-07T07:44:39.060Z,96910.00
2022-09-07T07:47:06.074Z,96902.00
2022-09-07T07:49:33.022Z,96907.00
2022-09-07T07:54:46.498Z,96901.00
2022-09-07T07:57:13.250Z,96906.00
2022-09-07T07:59:40.107Z,96902.00
2022-09-07T08:02:10.590Z,96904.00
2022-09-07T08:04:37.372Z,96900.00
2022-09-07T08:07:10.185Z,96912.00
2022-09-07T08:09:43.252Z,96907.00
2022-09-07T08:12:13.404Z,96903.00
2022-09-07T08:14:41.323Z,96910.00
2022-09-07T08:17:13.815Z,96907.00
2022-09-07T08:19:41.045Z,96901.00
2022-09-07T08:22:09.692Z,96900.00
2022-09-07T08:24:36.735Z,96909.00
2022-09-07T08:27:03.734Z,96906.00
2022-09-07T08:29:34.520Z,96916.00
2022-09-07T08:32:04.123Z,96907.00
2022-09-07T08:34:30.988Z,96914.00
2022-09-07T08:36:57.698Z,96914.00
2022-09-07T08:39:24.482Z,96912.00
2022-09-07T08:42:03.248Z,96913.00
2022-09-07T08:44:48.834Z,96914.00
2022-09-07T08:47:23.649Z,96915.00
2022-09-07T08:50:26.212Z,96909.00
2022-09-07T08:53:23.745Z,96910.00
2022-09-07T08:56:16.261Z,96912.00
2022-09-07T08:58:55.546Z,96906.00
2022-09-07T09:08:55.460Z,96910.00
2022-09-07T09:11:55.951Z,96904.00
2022-09-07T09:15:15.760Z,96892.00
2022-09-07T09:18:14.435Z,96890.00
2022-09-07T09:20:56.907Z,96895.00
2022-09-07T09:23:34.168Z,96889.00
2022-09-07T09:26:27.667Z,96891.00
2022-09-07T09:28:55.075Z,96890.00
2022-09-07T09:31:32.958Z,96887.00
2022-09-07T09:34:05.478Z,96893.00
2022-09-07T09:36:36.531Z,96889.00
2022-09-07T09:39:29.905Z,96891.00
2022-09-07T09:42:24.015Z,96895.00
2022-09-07T09:44:51.152Z,96891.00
2022-09-07T09:47:32.564Z,96879.00
2022-09-07T09:50:07.534Z,96882.00
2022-09-07T09:52:47.807Z,96893.00
2022-09-07T09:55:36.064Z,96882.00
2022-09-07T10:01:33.554Z,96883.00
2022-09-07T10:04:24.660Z,96883.00
2022-09-07T10:07:06.915Z,96879.00
2022-09-07T10:09:43.676Z,96877.00
2022-09-07T10:12:32.103Z,96871.00
2022-09-07T10:15:01.791Z,96865.00
2022-09-07T10:17:42.405Z,96866.00
2022-09-07T10:20:18.774Z,96870.00
2022-09-07T10:22:51.742Z,96861.00
2022-09-07T10:25:34.741Z,96858.00
2022-09-07T10:28:04.972Z,96855.00
2022-09-07T10:31:02.385Z,96848.00
2022-09-07T10:37:03.394Z,96840.00
2022-09-07T10:40:00.643Z,96832.00
2022-09-07T10:43:20.612Z,96821.00
2022-09-07T10:46:08.535Z,96817.00
2022-09-07T10:48:56.451Z,96815.00
2022-09-07T10:51:33.421Z,96822.00
2022-09-07T10:54:31.505Z,96815.00
2022-09-07T10:58:06.859Z,96816.00
2022-09-07T11:01:02.202Z,96809.00
2022-09-07T11:04:13.784Z,96819.00
2022-09-07T11:06:45.433Z,96800.00
2022-09-07T11:09:42.517Z,96803.00
2022-09-07T11:12:26.024Z,96805.00
2022-09-07T11:15:12.997Z,96803.00
2022-09-07T11:17:52.615Z,96802.00
2022-09-07T11:20:32.003Z,96800.00
2022-09-07T11:23:34.439Z,96798.00
2022-09-07T11:26:30.340Z,96797.00
2022-09-07T11:29:32.639Z,96793.00
2022-09-07T11:32:12.951Z,96785.00
2022-09-07T11:34:59.108Z,96782.00
2022-09-07T11:37:51.011Z,96774.00
2022-09-07T11:40:32.040Z,96781.00
2022-09-07T11:43:03.900Z,96785.00
2022-09-07T11:45:38.959Z,96791.00
2022-09-07T11:48:43.037Z,96782.00
2022-09-07T11:51:20.670Z,96773.00
2022-09-07T11:53:55.192Z,96762.00
2022-09-07T11:56:36.608Z,96754.00
2022-09-07T11:59:32.509Z,96749.00
2022-09-07T12:02:59.427Z,96755.00
2022-09-07T12:06:22.430Z,96751.00
2022-09-07T12:09:23.853Z,96745.00
2022-09-07T12:12:20.736Z,96746.00
2022-09-07T12:15:10.666Z,96745.00
2022-09-07T12:18:01.974Z,96745.00
2022-09-07T12:20:47.386Z,96750.00
2022-09-07T12:23:16.815Z,96750.00
2022-09-07T12:25:46.567Z,96742.00
2022-09-07T12:28:37.324Z,96735.00
2022-09-07T12:31:06.811Z,96736.00
2022-09-07T12:33:52.845Z,96733.00
2022-09-07T12:37:06.809Z,96728.00
2022-09-07T12:39:59.011Z,96720.00
2022-09-07T12:42:37.541Z,96708.00
2022-09-07T12:45:49.587Z,96711.00
2022-09-07T12:48:17.111Z,96721.00
2022-09-07T12:55:28.473Z,96715.00
2022-09-07T12:58:21.675Z,96705.00
2022-09-07T13:01:23.540Z,96702.00
2022-09-07T13:05:22.888Z,96700.00
2022-09-07T13:16:21.291Z,96680.00
2022-09-07T13:19:19.686Z,96692.00
2022-09-07T13:21:50.092Z,96690.00
2022-09-07T13:27:05.981Z,96686.00
2022-09-07T13:29:50.468Z,96687.00
2022-09-07T13:35:24.882Z,96682.00
2022-09-07T13:38:02.452Z,96676.00
2022-09-07T13:40:34.899Z,96688.00
2022-09-07T13:43:03.979Z,96680.00
2022-09-07T13:45:54.438Z,96684.00
2022-09-07T13:48:49.484Z,96684.00
2022-09-07T13:51:29.108Z,96674.00
2022-09-07T13:53:55.972Z,96684.00
2022-09-07T13:56:45.599Z,96689.00
2022-09-07T13:59:22.346Z,96688.00
2022-09-07T14:01:50.899Z,96687.00
2022-09-07T14:04:41.993Z,96697.00
2022-09-07T14:07:27.872Z,96694.00
2022-09-07T14:10:19.713Z,96689.00
2022-09-07T14:12:51.831Z,96674.00
2022-09-07T14:15:28.289Z,96668.00
2022-09-07T14:18:15.784Z,96673.00
2022-09-07T14:20:53.989Z,96672.00
2022-09-07T14:23:32.777Z,96666.00
2022-09-07T14:26:44.793Z,96673.00
2022-09-07T14:29:23.504Z,96661.00
2022-09-07T14:31:50.911Z,96664.00
2022-09-07T14:34:23.123Z,96666.00
2022-09-07T14:36:51.256Z,96668.00
2022-09-07T14:39:21.007Z,96661.00
2022-09-07T14:41:48.332Z,96655.00
2022-09-07T14:44:42.758Z,96647.00
2022-09-07T14:47:29.221Z,96649.00
2022-09-07T14:50:04.192Z,96642.00
2022-09-07T14:53:33.357Z,96657.00
2022-09-07T14:55:30.389Z,96651.00
2022-09-07T14:58:15.059Z,96645.00
2022-09-07T15:03:40.835Z,96627.00
2022-09-07T15:07:00.819Z,96614.00
2022-09-07T15:08:57.799Z,96612.00
2022-09-07T15:11:35.405Z,96604.00
2022-09-07T15:14:19.893Z,96615.00
2022-09-07T15:19:50.105Z,96609.00
2022-09-07T15:22:18.608Z,96601.00
2022-09-07T15:24:51.387Z,96593.00
2022-09-07T15:27:28.482Z,96584.00
2022-09-07T15:29:55.593Z,96595.00
2022-09-07T15:32:22.376Z,96605.00
2022-09-07T15:34:49.118Z,96603.00
2022-09-07T15:40:20.828Z,96607.00
2022-09-07T15:43:13.711Z,96617.00
2022-09-07T15:45:34.416Z,96616.00
2022-09-07T15:48:01.226Z,96633.00
2022-09-07T15:50:27.962Z,96655.00
2022-09-07T15:52:54.704Z,96661.00
2022-09-07T15:55:21.494Z,96652.00
2022-09-07T15:57:50.157Z,96642.00
2022-09-07T16:00:20.029Z,96637.00
2022-09-07T16:03:07.152Z,96653.00
2022-09-07T16:05:34.870Z,96668.00
2022-09-07T16:10:54.046Z,96662.00
2022-09-07T16:13:23.769Z,96639.00
2022-09-07T16:15:50.886Z,96600.00
2022-09-07T16:18:18.707Z,96590.00
2022-09-07T16:20:46.227Z,96589.00
2022-09-07T16:23:16.009Z,96591.00
2022-09-07T16:25:57.024Z,96596.00
2022-09-07T16:28:24.328Z,96588.00
2022-09-07T16:30:51.164Z,96585.00
2022-09-07T16:33:18.005Z,96585.00
2022-09-07T16:35:59.118Z,96596.00
2022-09-07T16:41:27.058Z,96610.00
2022-09-07T16:43:54.742Z,96612.00
2022-09-07T16:46:24.732Z,96615.00
2022-09-07T16:48:52.144Z,96618.00
2022-09-07T16:51:21.244Z,96615.00
2022-09-07T16:53:50.279Z,96619.00
2022-09-07T16:56:20.997Z,96637.00
2022-09-07T16:58:51.482Z,96635.00
2022-09-07T17:01:20.459Z,96631.00
2022-09-07T17:03:51.439Z,96632.00
2022-09-07T17:06:21.170Z,96635.00
2022-09-07T17:08:48.471Z,96637.00
2022-09-07T17:11:18.919Z,96635.00
2022-09-07T17:13:46.629Z,96643.00
2022-09-07T17:16:27.494Z,96643.00
2022-09-07T17:21:41.851Z,96621.00
2022-09-07T17:24:11.060Z,96616.00
2022-09-07T17:26:38.702Z,96604.00
2022-09-07T17:29:07.133Z,96597.00
2022-09-07T17:34:23.559Z,96609.00
2022-09-07T17:36:50.328Z,96607.00
2022-09-07T17:39:19.083Z,96591.00
2022-09-07T17:41:48.485Z,96577.00
2022-09-07T17:44:16.647Z,96578.00
2022-09-07T17:46:43.562Z,96580.00
2022-09-07T17:49:13.845Z,96588.00
2022-09-07T17:51:40.595Z,96570.00
2022-09-07T17:54:11.704Z,96585.00
2022-09-07T17:56:40.019Z,96589.00
2022-09-07T18:01:54.728Z,96579.00
2022-09-07T18:04:22.202Z,96594.00
2022-09-07T18:06:49.804Z,96585.00
2022-09-07T18:09:17.321Z,96587.00
2022-09-07T18:11:47.124Z,96578.00
2022-09-07T18:14:15.496Z,96580.00
2022-09-07T18:16:44.314Z,96576.00
2022-09-07T18:19:11.811Z,96581.00
2022-09-07T18:21:43.190Z,96592.00
2022-09-07T18:24:22.821Z,96597.00
2022-09-07T18:26:52.784Z,96605.00
2022-09-07T18:29:38.895Z,96600.00
2022-09-07T18:32:09.444Z,96602.00
2022-09-07T18:34:38.075Z,96612.00
2022-09-07T18:37:05.398Z,96613.00
2022-09-07T18:39:33.373Z,96605.00
2022-09-07T18:42:00.208Z,96613.00
2022-09-07T18:47:23.137Z,96615.00
2022-09-07T18:49:54.844Z,96615.00
2022-09-07T18:55:09.811Z,96615.00
2022-09-07T18:57:37.147Z,96620.00
2022-09-07T19:00:07.752Z,96636.00
2022-09-07T19:02:35.666Z,96617.00
2022-09-07T19:07:49.331Z,96607.00
2022-09-07T19:10:16.787Z,96605.00
2022-09-07T19:12:46.062Z,96601.00
2022-09-07T19:15:13.930Z,96596.00
2022-09-07T19:17:40.837Z,96583.00
2022-09-07T19:20:08.211Z,96588.00
2022-09-07T19:22:34.933Z,96583.00
2022-09-07T19:25:01.685Z,96574.00
2022-09-07T19:27:28.460Z,96564.00
2022-09-07T19:29:55.277Z,96555.00
2022-09-07T19:32:25.416Z,96545.00
2022-09-07T19:34:55.401Z,96534.00
2022-09-07T19:37:25.328Z,96538.00
2022-09-07T19:39:54.968Z,96530.00
2022-09-07T19:42:22.491Z,96524.00
2022-09-07T19:44:49.724Z,96519.00
2022-09-07T19:47:22.950Z,96516.00
2022-09-07T19:49:52.371Z,96515.00
2022-09-07T19:52:45.961Z,96515.00
2022-09-07T19:55:25.832Z,96506.00
2022-09-07T19:58:00.666Z,96520.00
2022-09-07T20:00:47.002Z,96508.00
2022-09-07T20:03:23.620Z,96514.00
2022-09-07T20:05:53.646Z,96515.00
2022-09-07T20:08:27.230Z,96511.00
2022-09-07T20:11:23.075Z,96507.00
2022-09-07T20:13:56.159Z,96502.00
2022-09-07T20:16:47.177Z,96509.00
2022-09-07T20:19:22.406Z,96496.00
2022-09-07T20:22:13.986Z,96491.00
2022-09-07T20:25:02.177Z,96498.00
2022-09-07T20:27:35.753Z,96500.00
2022-09-07T20:30:23.615Z,96494.00
2022-09-07T20:32:51.499Z,96498.00
2022-09-07T20:35:21.408Z,96505.00
2022-09-07T20:37:48.265Z,96501.00
2022-09-07T20:40:15.171Z,96514.00
2022-09-07T20:42:41.978Z,96516.00
2022-09-07T20:45:09.292Z,96513.00
2022-09-07T20:47:36.109Z,96521.00
2022-09-07T20:50:02.955Z,96530.00
2022-09-07T20:52:29.906Z,96544.00
2022-09-07T20:54:56.652Z,96542.00
2022-09-07T20:57:23.529Z,96555.00
2022-09-07T20:59:50.279Z,96569.00
2022-09-07T21:02:17.374Z,96569.00
2022-09-07T21:04:44.532Z,96570.00
2022-09-07T21:07:11.267Z,96572.00
2022-09-07T21:09:38.021Z,96569.00
2022-09-07T21:12:04.954Z,96570.00
2022-09-07T21:14:31.682Z,96560.00
2022-09-07T21:16:58.413Z,96569.00
2022-09-07T21:19:25.151Z,96573.00
2022-09-07T21:21:51.867Z,96593.00
2022-09-07T21:24:21.975Z,96612.00
2022-09-07T21:26:49.987Z,96607.00
2022-09-07T21:29:23.714Z,96621.00
2022-09-07T21:31:53.381Z,96631.00
2022-09-07T21:34:21.197Z,96635.00
2022-09-07T21:36:48.219Z,96632.00
2022-09-07T21:39:15.913Z,96640.00
2022-09-07T21:41:44.318Z,96641.00
2022-09-07T21:44:15.662Z,96626.00
2022-09-07T21:46:43.303Z,96619.00
2022-09-07T21:49:11.120Z,96600.00
2022-09-07T21:51:38.034Z,96606.00
2022-09-07T21:54:05.051Z,96603.00
2022-09-07T21:56:32.455Z,96603.00
2022-09-07T21:59:01.399Z,96595.00
2022-09-07T22:01:30.212Z,96585.00
2022-09-07T22:04:00.257Z,96586.00
2022-09-07T22:06:30.933Z,96587.00
2022-09-07T22:08:58.226Z,96570.00
2022-09-07T22:11:27.163Z,96569.00
2022-09-07T22:13:56.549Z,96553.00
2022-09-07T22:16:24.216Z,96546.00
2022-09-07T22:18:51.208Z,96530.00
2022-09-07T22:21:27.888Z,96528.00
2022-09-07T22:24:01.557Z,96507.00
2022-09-07T22:26:31.957Z,96486.00
2022-09-07T22:28:59.157Z,96464.00
2022-09-07T22:31:30.259Z,96443.00
2022-09-07T22:33:58.980Z,96440.00
2022-09-07T22:36:30.107Z,96433.00
2022-09-07T22:38:59.618Z,96420.00
2022-09-07T22:41:29.971Z,96406.00
2022-09-07T22:43:57.251Z,96393.00
2022-09-07T22:46:26.920Z,96388.00
2022-09-07T22:48:56.155Z,96378.00
2022-09-07T22:51:25.511Z,96375.00
2022-09-07T22:53:52.794Z,96381.00
2022-09-07T22:56:26.888Z,96381.00
2022-09-07T22:58:57.281Z,96387.00
2022-09-07T23:01:24.636Z,96388.00
2022-09-07T23:03:51.460Z,96394.00
2022-09-07T23:06:29.016Z,96397.00
2022-09-07T23:08:58.740Z,96402.00
2022-09-07T23:11:26.636Z,96397.00
2022-09-07T23:13:58.819Z,96396.00
2022-09-07T23:16:27.336Z,96420.00
2022-09-07T23:18:57.240Z,96434.00
2022-09-07T23:21:25.694Z,96439.00
2022-09-07T23:23:54.928Z,96443.00
2022-09-07T23:26:23.373Z,96451.00
2022-09-07T23:29:00.090Z,96458.00
2022-09-07T23:31:29.185Z,96449.00
2022-09-07T23:33:57.625Z,96469.00
2022-09-07T23:36:24.958Z,96468.00
2022-09-07T23:38:55.381Z,96480.00
2022-09-07T23:41:23.178Z,96493.00
2022-09-07T23:43:50.411Z,96494.00
2022-09-07T23:46:17.691Z,96497.00
2022-09-07T23:48:46.179Z,96500.00
2022-09-07T23:51:14.454Z,96504.00
2022-09-07T23:53:41.313Z,96504.00
2022-09-07T23:56:08.507Z,96500.00
2022-09-07T23:58:35.223Z,96491.00
